createdAt,value
2022-10-23T00:01:43.724Z,17.80
2022-10-23T00:04:14.907Z,19.50
2022-10-23T00:06:41.599Z,20.42
2022-10-23T00:09:09.136Z,18.98
2022-10-23T00:11:35.779Z,20.15
2022-10-23T00:14:03.571Z,19.38
2022-10-23T00:16:30.482Z,20.25
2022-10-23T00:18:57.011Z,20.02
2022-10-23T00:21:24.019Z,19.92
2022-10-23T00:23:50.345Z,21.52
2022-10-23T00:26:16.712Z,21.77
2022-10-23T00:28:43.793Z,20.38
2022-10-23T00:31:10.133Z,21.42
2022-10-23T00:33:36.454Z,19.50
2022-10-23T00:36:06.589Z,21.40
2022-10-23T00:38:32.978Z,20.17
2022-10-23T00:40:59.396Z,21.73
2022-10-23T00:43:27.242Z,22.38
2022-10-23T00:45:53.719Z,21.00
2022-10-23T00:48:20.317Z,21.55
2022-10-23T00:50:47.754Z,20.17
2022-10-23T00:53:15.338Z,21.30
2022-10-23T00:55:46.650Z,21.48
2022-10-23T00:58:13.923Z,21.77
2022-10-23T01:00:42.560Z,21.02
2022-10-23T01:03:08.883Z,19.65
2022-10-23T01:05:41.269Z,20.75
2022-10-23T01:08:12.670Z,19.67
2022-10-23T01:10:47.102Z,20.42
2022-10-23T01:13:37.203Z,18.83
2022-10-23T01:16:23.895Z,19.05
2022-10-23T01:18:59.554Z,18.75
2022-10-23T01:21:34.811Z,18.85
2022-10-23T01:24:01.268Z,20.17
2022-10-23T01:26:47.826Z,20.13
2022-10-23T01:29:21.020Z,21.45
2022-10-23T01:31:53.248Z,20.10
2022-10-23T01:34:26.276Z,19.80
2022-10-23T01:36:53.724Z,18.90
2022-10-23T01:39:25.860Z,18.70
2022-10-23T01:41:55.058Z,21.95
2022-10-23T01:44:36.227Z,20.77
2022-10-23T01:47:05.608Z,20.65
2022-10-23T01:49:35.992Z,19.23
2022-10-23T01:52:06.354Z,19.13
2022-10-23T01:54:35.579Z,19.42
2022-10-23T01:57:02.815Z,19.45
2022-10-23T01:59:37.275Z,20.83
2022-10-23T02:02:06.463Z,22.65
2022-10-23T02:04:38.286Z,21.23
2022-10-23T02:07:04.766Z,21.50
2022-10-23T02:09:31.382Z,20.08
2022-10-23T02:12:08.315Z,21.35
2022-10-23T02:14:45.798Z,21.08
2022-10-23T02:17:18.720Z,20.02
2022-10-23T02:22:22.863Z,18.75
2022-10-23T02:24:52.103Z,19.02
2022-10-23T02:27:29.310Z,19.13
2022-10-23T02:30:00.590Z,21.63
2022-10-23T02:32:30.499Z,19.02
2022-10-23T02:34:56.894Z,21.30
2022-10-23T02:37:25.338Z,20.10
2022-10-23T02:39:52.429Z,19.85
2022-10-23T02:42:28.102Z,19.42
2022-10-23T02:44:59.513Z,18.92
2022-10-23T02:47:28.863Z,18.65
2022-10-23T02:50:02.886Z,18.00
2022-10-23T02:52:35.340Z,17.58
2022-10-23T02:55:19.292Z,17.95
2022-10-23T02:57:54.854Z,18.23
2022-10-23T03:00:22.127Z,17.42
2022-10-23T03:02:54.914Z,16.65
2022-10-23T03:05:23.289Z,18.77
2022-10-23T03:07:49.840Z,17.05
2022-10-23T03:10:17.785Z,16.95
2022-10-23T03:12:44.637Z,18.13
2022-10-23T03:15:12.384Z,18.42
2022-10-23T03:17:39.572Z,17.40
2022-10-23T03:20:07.447Z,17.90
2022-10-23T03:22:35.229Z,15.80
2022-10-23T03:25:01.573Z,16.60
2022-10-23T03:27:30.068Z,18.83
2022-10-23T03:29:56.537Z,17.25
2022-10-23T03:32:22.864Z,18.00
2022-10-23T03:34:49.198Z,17.50
2022-10-23T03:37:15.974Z,17.83
2022-10-23T03:39:42.463Z,17.20
2022-10-23T03:42:08.739Z,17.08
2022-10-23T03:44:35.213Z,17.77
2022-10-23T03:47:02.570Z,17.73
2022-10-23T03:49:28.874Z,18.33
2022-10-23T03:54:28.251Z,19.40
2022-10-23T03:56:57.390Z,16.08
2022-10-23T03:59:25.307Z,18.35
2022-10-23T04:01:54.759Z,17.48
2022-10-23T04:04:23.957Z,17.65
2022-10-23T04:06:50.277Z,18.63
2022-10-23T04:09:18.228Z,16.67
2022-10-23T04:11:44.643Z,15.55
2022-10-23T04:14:11.924Z,16.92
2022-10-23T04:16:38.231Z,16.45
2022-10-23T04:19:06.017Z,15.88
2022-10-23T04:21:32.323Z,16.40
2022-10-23T04:23:58.612Z,16.67
2022-10-23T04:26:24.935Z,16.88
2022-10-23T04:28:51.224Z,15.02
2022-10-23T04:31:17.527Z,15.10
2022-10-23T04:33:43.873Z,16.25
2022-10-23T04:36:20.719Z,15.18
2022-10-23T04:38:47.833Z,14.02
2022-10-23T04:41:14.173Z,14.73
2022-10-23T04:43:40.508Z,14.07
2022-10-23T04:46:07.676Z,15.30
2022-10-23T04:48:33.993Z,15.90
2022-10-23T04:51:18.788Z,14.02
2022-10-23T04:54:07.698Z,14.05
2022-10-23T04:56:44.900Z,13.82
2022-10-23T04:59:15.475Z,15.30
2022-10-23T05:01:42.263Z,13.88
2022-10-23T05:04:09.088Z,14.95
2022-10-23T05:06:55.375Z,14.15
2022-10-23T05:09:35.955Z,15.23
2022-10-23T05:12:26.501Z,14.60
2022-10-23T05:14:53.110Z,14.45
2022-10-23T05:17:26.156Z,14.02
2022-10-23T05:19:54.167Z,13.85
2022-10-23T05:22:20.968Z,14.50
2022-10-23T05:24:52.246Z,14.75
2022-10-23T05:27:22.375Z,13.32
2022-10-23T05:29:50.675Z,14.13
2022-10-23T05:34:47.736Z,15.77
2022-10-23T05:37:15.191Z,13.88
2022-10-23T05:39:42.484Z,14.00
2022-10-23T05:42:12.730Z,13.02
2022-10-23T05:44:40.307Z,13.13
2022-10-23T05:47:26.864Z,12.90
2022-10-23T05:50:01.283Z,13.50
2022-10-23T05:52:33.563Z,13.45
2022-10-23T05:55:23.006Z,13.80
2022-10-23T05:57:57.403Z,15.93
2022-10-23T06:00:42.689Z,13.95
2022-10-23T06:03:28.937Z,13.80
2022-10-23T06:05:55.323Z,14.15
2022-10-23T06:08:27.474Z,13.63
2022-10-23T06:10:53.811Z,14.63
2022-10-23T06:13:20.251Z,14.55
2022-10-23T06:15:46.561Z,13.98
2022-10-23T06:18:19.664Z,13.60
2022-10-23T06:20:53.528Z,12.82
2022-10-23T06:23:24.489Z,13.23
2022-10-23T06:26:17.873Z,12.93
2022-10-23T06:29:07.245Z,12.70
2022-10-23T06:31:33.782Z,13.55
2022-10-23T06:34:01.744Z,13.55
2022-10-23T06:36:29.801Z,13.77
2022-10-23T06:39:05.351Z,13.20
2022-10-23T06:42:07.492Z,13.18
2022-10-23T06:45:03.422Z,13.45
2022-10-23T06:47:38.574Z,12.65
2022-10-23T06:50:34.344Z,13.70
2022-10-23T06:53:06.075Z,12.85
2022-10-23T06:55:34.226Z,12.90
2022-10-23T06:58:02.575Z,13.93
2022-10-23T07:00:29.059Z,12.75
2022-10-23T07:02:55.814Z,12.85
2022-10-23T07:05:22.458Z,13.10
2022-10-23T07:07:49.063Z,11.90
2022-10-23T07:10:21.640Z,11.80
2022-10-23T07:12:54.230Z,10.15
2022-10-23T07:15:34.424Z,11.18
2022-10-23T07:18:03.373Z,11.10
2022-10-23T07:20:43.251Z,11.55
2022-10-23T07:23:11.507Z,11.63
2022-10-23T07:25:39.007Z,11.02
2022-10-23T07:28:06.801Z,10.52
2022-10-23T07:30:33.274Z,10.38
2022-10-23T07:33:01.209Z,9.55
2022-10-23T07:35:53.541Z,9.73
2022-10-23T07:38:25.830Z,10.13
2022-10-23T07:40:54.071Z,9.88
2022-10-23T07:43:21.099Z,9.18
2022-10-23T07:45:48.489Z,9.57
2022-10-23T07:48:24.628Z,9.30
2022-10-23T07:51:03.457Z,9.43
2022-10-23T07:53:30.592Z,9.68
2022-10-23T07:56:12.494Z,8.65
2022-10-23T07:58:58.779Z,7.57
2022-10-23T08:01:32.494Z,9.35
2022-10-23T08:04:02.836Z,8.55
2022-10-23T08:06:30.701Z,7.45
2022-10-23T08:09:15.063Z,8.13
2022-10-23T08:11:42.547Z,8.30
2022-10-23T08:14:16.309Z,8.30
2022-10-23T08:16:47.076Z,7.78
2022-10-23T08:19:16.479Z,8.20
2022-10-23T08:21:48.053Z,7.55
2022-10-23T08:24:16.386Z,7.63
2022-10-23T08:26:46.928Z,7.03
2022-10-23T08:29:14.354Z,7.72
2022-10-23T08:31:43.755Z,6.57
2022-10-23T08:34:26.883Z,7.32
2022-10-23T08:36:55.989Z,7.10
2022-10-23T08:39:27.840Z,7.50
2022-10-23T08:42:25.241Z,7.22
2022-10-23T08:48:44.519Z,7.75
2022-10-23T08:51:38.018Z,6.32
2022-10-23T08:54:13.084Z,6.35
2022-10-23T08:56:41.002Z,7.45
2022-10-23T08:59:21.672Z,7.05
2022-10-23T09:01:58.520Z,7.23
2022-10-23T09:04:30.980Z,5.82
2022-10-23T09:07:33.467Z,6.32
2022-10-23T09:13:19.213Z,6.60
2022-10-23T09:15:54.222Z,7.35
2022-10-23T09:18:35.114Z,5.85
2022-10-23T09:23:36.104Z,5.43
2022-10-23T09:26:20.412Z,5.67
2022-10-23T09:28:52.435Z,5.32
2022-10-23T09:31:22.309Z,5.13
2022-10-23T09:33:59.785Z,5.90
2022-10-23T09:36:29.052Z,5.75
2022-10-23T09:38:59.070Z,6.40
2022-10-23T09:41:30.781Z,5.50
2022-10-23T09:44:06.482Z,5.80
2022-10-23T09:46:38.846Z,5.55
2022-10-23T09:49:21.747Z,5.30
2022-10-23T09:52:16.077Z,5.95
2022-10-23T09:54:46.885Z,5.75
2022-10-23T09:57:19.414Z,6.78
2022-10-23T10:02:20.550Z,5.78
2022-10-23T10:05:31.583Z,6.32
2022-10-23T10:08:08.936Z,5.53
2022-10-23T10:10:37.474Z,5.50
2022-10-23T10:13:14.846Z,5.20
2022-10-23T10:15:48.647Z,5.30
2022-10-23T10:18:21.112Z,5.25
2022-10-23T10:21:06.846Z,5.00
2022-10-23T10:23:47.038Z,4.55
2022-10-23T10:26:42.450Z,4.15
2022-10-23T10:29:35.892Z,4.70
2022-10-23T10:32:20.855Z,4.53
2022-10-23T10:34:47.106Z,5.13
2022-10-23T10:37:13.363Z,4.28
2022-10-23T10:40:02.479Z,4.28
2022-10-23T10:42:28.735Z,4.18
2022-10-23T10:45:04.297Z,4.13
2022-10-23T10:47:39.296Z,3.72
2022-10-23T10:50:26.194Z,3.85
2022-10-23T10:53:28.280Z,3.90
2022-10-23T10:55:56.436Z,4.70
2022-10-23T10:58:25.569Z,4.68
2022-10-23T11:00:56.862Z,4.20
2022-10-23T11:03:23.910Z,3.95
2022-10-23T11:05:51.500Z,4.28
2022-10-23T11:08:21.467Z,3.80
2022-10-23T11:10:52.353Z,4.03
2022-10-23T11:13:21.466Z,3.55
2022-10-23T11:15:48.160Z,3.47
2022-10-23T11:18:22.923Z,3.63
2022-10-23T11:20:58.622Z,4.18
2022-10-23T11:23:27.736Z,3.58
2022-10-23T11:25:54.108Z,4.43
2022-10-23T11:28:23.474Z,4.07
2022-10-23T11:31:12.132Z,5.10
2022-10-23T11:33:52.469Z,3.90
2022-10-23T11:36:37.211Z,3.83
2022-10-23T11:39:23.670Z,3.58
2022-10-23T11:41:51.771Z,3.20
2022-10-23T11:44:36.380Z,3.75
2022-10-23T11:47:04.015Z,4.35
2022-10-23T11:49:30.311Z,3.85
2022-10-23T11:52:03.231Z,3.88
2022-10-23T11:54:29.544Z,3.25
2022-10-23T11:56:58.527Z,3.35
2022-10-23T11:59:29.644Z,3.22
2022-10-23T12:01:57.562Z,3.47
2022-10-23T12:04:26.312Z,3.70
2022-10-23T12:06:59.790Z,3.88
2022-10-23T12:09:43.642Z,3.05
2022-10-23T12:12:09.903Z,3.03
2022-10-23T12:14:36.207Z,3.20
2022-10-23T12:17:02.763Z,3.63
2022-10-23T12:19:30.271Z,3.40
2022-10-23T12:21:58.515Z,3.35
2022-10-23T12:24:43.382Z,3.72
2022-10-23T12:27:30.321Z,4.25
2022-10-23T12:30:03.325Z,5.13
2022-10-23T12:32:35.659Z,5.38
2022-10-23T12:37:38.256Z,3.50
2022-10-23T12:40:09.058Z,3.35
2022-10-23T12:42:35.747Z,2.88
2022-10-23T12:45:18.948Z,3.33
2022-10-23T12:47:48.543Z,3.70
2022-10-23T12:50:18.651Z,4.65
2022-10-23T12:52:57.845Z,4.03
2022-10-23T12:55:25.558Z,3.30
2022-10-23T12:57:52.898Z,3.20
2022-10-23T13:00:20.496Z,3.17
2022-10-23T13:02:47.238Z,3.50
2022-10-23T13:05:18.851Z,3.17
2022-10-23T13:07:47.247Z,3.47
2022-10-23T13:10:17.456Z,3.60
2022-10-23T13:12:58.207Z,3.33
2022-10-23T13:15:25.280Z,3.15
2022-10-23T13:17:57.552Z,3.25
2022-10-23T13:20:29.718Z,3.40
2022-10-23T13:23:01.236Z,3.13
2022-10-23T13:25:30.601Z,3.37
2022-10-23T13:28:13.919Z,3.15
2022-10-23T13:30:46.131Z,3.25
2022-10-23T13:33:16.103Z,3.53
2022-10-23T13:35:42.431Z,2.92
2022-10-23T13:38:09.008Z,2.70
2022-10-23T13:40:35.359Z,2.67
2022-10-23T13:43:01.785Z,2.70
2022-10-23T13:45:28.074Z,2.97
2022-10-23T13:47:54.352Z,2.90
2022-10-23T13:50:20.712Z,2.40
2022-10-23T13:52:47.848Z,2.80
2022-10-23T13:55:22.298Z,2.35
2022-10-23T13:57:48.658Z,2.65
2022-10-23T14:00:16.124Z,2.95
2022-10-23T14:02:43.177Z,3.00
2022-10-23T14:05:12.179Z,2.85
2022-10-23T14:07:39.737Z,2.92
2022-10-23T14:10:18.255Z,2.75
2022-10-23T14:12:46.805Z,3.08
2022-10-23T14:15:14.699Z,3.35
2022-10-23T14:17:42.503Z,3.58
2022-10-23T14:20:09.427Z,3.47
2022-10-23T14:22:36.454Z,3.05
2022-10-23T14:25:04.836Z,3.80
2022-10-23T14:27:34.105Z,3.15
2022-10-23T14:30:01.768Z,3.25
2022-10-23T14:32:30.115Z,2.80
2022-10-23T14:34:56.925Z,2.83
2022-10-23T14:37:28.990Z,2.97
2022-10-23T14:39:56.753Z,3.03
2022-10-23T14:42:24.291Z,2.95
2022-10-23T14:44:53.264Z,2.72
2022-10-23T14:47:23.910Z,2.60
2022-10-23T14:49:52.807Z,3.00
2022-10-23T14:52:19.144Z,3.50
2022-10-23T14:54:45.502Z,2.83
2022-10-23T14:57:15.954Z,3.58
2022-10-23T14:59:42.423Z,2.75
2022-10-23T15:02:11.885Z,2.80
2022-10-23T15:04:38.584Z,3.08
2022-10-23T15:07:04.962Z,3.15
2022-10-23T15:09:35.031Z,3.20
2022-10-23T15:12:01.367Z,2.92
2022-10-23T15:14:27.688Z,3.22
2022-10-23T15:16:53.985Z,2.75
2022-10-23T15:19:20.339Z,2.92
2022-10-23T15:21:47.390Z,3.08
2022-10-23T15:24:14.231Z,3.08
2022-10-23T15:26:43.002Z,4.22
2022-10-23T15:29:11.164Z,3.22
2022-10-23T15:31:37.514Z,3.90
2022-10-23T15:34:04.912Z,3.10
2022-10-23T15:36:32.316Z,3.40
2022-10-23T15:38:58.613Z,3.70
2022-10-23T15:41:32.623Z,4.00
2022-10-23T15:43:59.867Z,3.90
2022-10-23T15:46:26.474Z,3.78
2022-10-23T15:48:53.154Z,4.13
2022-10-23T15:51:19.500Z,3.80
2022-10-23T15:53:45.812Z,3.50
2022-10-23T15:56:12.158Z,3.85
2022-10-23T15:58:38.497Z,4.28
2022-10-23T16:01:06.415Z,3.85
2022-10-23T16:03:36.555Z,3.75
2022-10-23T16:06:04.126Z,3.97
2022-10-23T16:08:30.715Z,3.33
2022-10-23T16:10:57.039Z,3.90
2022-10-23T16:13:23.323Z,4.40
2022-10-23T16:15:49.627Z,4.10
2022-10-23T16:18:17.938Z,3.88
2022-10-23T16:20:44.282Z,4.10
2022-10-23T16:23:12.238Z,4.28
2022-10-23T16:25:39.025Z,3.95
2022-10-23T16:28:05.731Z,4.03
2022-10-23T16:30:32.083Z,4.07
2022-10-23T16:32:58.367Z,3.92
2022-10-23T16:35:24.662Z,4.60
2022-10-23T16:38:03.906Z,4.43
2022-10-23T16:40:30.194Z,4.13
2022-10-23T16:43:15.130Z,4.82
2022-10-23T16:45:47.588Z,4.15
2022-10-23T16:48:13.894Z,5.13
2022-10-23T16:50:41.061Z,4.90
2022-10-23T16:53:07.655Z,4.57
2022-10-23T16:55:34.033Z,4.35
2022-10-23T16:58:00.566Z,5.13
2022-10-23T17:00:34.668Z,4.30
2022-10-23T17:03:02.000Z,4.63
2022-10-23T17:05:29.202Z,13.63
2022-10-23T17:07:55.542Z,9.18
2022-10-23T17:10:21.817Z,4.60
2022-10-23T17:12:49.877Z,6.25
2022-10-23T17:15:19.200Z,12.48
2022-10-23T17:17:45.887Z,16.60
2022-10-23T17:20:12.547Z,8.90
2022-10-23T17:22:39.171Z,6.35
2022-10-23T17:25:07.380Z,5.25
2022-10-23T17:27:33.643Z,4.68
2022-10-23T17:29:59.965Z,4.88
2022-10-23T17:32:26.305Z,5.40
2022-10-23T17:34:52.590Z,4.18
2022-10-23T17:37:18.858Z,4.70
2022-10-23T17:39:45.149Z,4.22
2022-10-23T17:42:11.449Z,3.65
2022-10-23T17:44:40.682Z,5.30
2022-10-23T17:47:07.467Z,4.70
2022-10-23T17:49:34.118Z,4.68
2022-10-23T17:52:01.805Z,4.45
2022-10-23T17:54:28.664Z,4.82
2022-10-23T17:56:54.990Z,5.03
2022-10-23T17:59:21.683Z,5.28
2022-10-23T18:01:50.030Z,5.28
2022-10-23T18:04:17.703Z,4.40
2022-10-23T18:06:45.516Z,4.22
2022-10-23T18:09:13.039Z,5.18
2022-10-23T18:11:45.203Z,5.82
2022-10-23T18:14:15.404Z,5.75
2022-10-23T18:16:42.964Z,4.93
2022-10-23T18:19:10.351Z,4.78
2022-10-23T18:21:37.850Z,5.07
2022-10-23T18:24:04.365Z,5.95
2022-10-23T18:26:35.662Z,3.90
2022-10-23T18:29:09.551Z,4.50
2022-10-23T18:31:37.386Z,5.22
2022-10-23T18:34:10.123Z,4.07
2022-10-23T18:39:03.235Z,4.05
2022-10-23T18:41:32.455Z,2.97
2022-10-23T18:43:59.124Z,3.63
2022-10-23T18:46:28.481Z,3.25
2022-10-23T18:48:55.713Z,3.38
2022-10-23T18:51:26.238Z,4.30
2022-10-23T18:53:52.988Z,4.40
2022-10-23T18:56:23.663Z,4.40
2022-10-23T18:58:52.692Z,4.68
2022-10-23T19:01:19.324Z,5.35
2022-10-23T19:03:46.066Z,4.13
2022-10-23T19:06:20.065Z,3.42
2022-10-23T19:08:47.020Z,4.40
2022-10-23T19:11:14.513Z,4.00
2022-10-23T19:13:43.451Z,4.43
2022-10-23T19:16:18.528Z,4.55
2022-10-23T19:18:46.626Z,4.13
2022-10-23T19:21:13.116Z,4.30
2022-10-23T19:23:40.511Z,4.13
2022-10-23T19:26:13.462Z,4.30
2022-10-23T19:28:41.069Z,4.30
2022-10-23T19:31:08.283Z,3.75
2022-10-23T19:33:36.237Z,4.20
2022-10-23T19:36:05.700Z,3.60
2022-10-23T19:38:34.935Z,3.25
2022-10-23T19:41:01.811Z,3.65
2022-10-23T19:43:28.095Z,3.72
2022-10-23T19:45:54.816Z,3.75
2022-10-23T19:48:21.100Z,3.75
2022-10-23T19:50:50.662Z,3.75
2022-10-23T19:53:20.570Z,4.30
2022-10-23T19:55:46.927Z,3.72
2022-10-23T19:58:13.323Z,3.47
2022-10-23T20:00:39.655Z,4.25
2022-10-23T20:03:05.975Z,3.78
2022-10-23T20:05:32.502Z,3.60
2022-10-23T20:08:06.134Z,3.70
2022-10-23T20:10:32.421Z,4.78
2022-10-23T20:13:15.131Z,4.25
2022-10-23T20:15:46.487Z,3.35
2022-10-23T20:18:15.134Z,3.67
2022-10-23T20:20:41.652Z,3.47
2022-10-23T20:23:08.007Z,4.38
2022-10-23T20:25:34.615Z,2.90
2022-10-23T20:28:00.899Z,3.92
2022-10-23T20:30:27.188Z,3.20
2022-10-23T20:32:56.290Z,2.70
2022-10-23T20:35:26.798Z,2.63
2022-10-23T20:37:53.387Z,2.22
2022-10-23T20:40:19.659Z,2.40
2022-10-23T20:42:45.935Z,2.00
2022-10-23T20:45:12.575Z,2.22
2022-10-23T20:47:38.958Z,1.65
2022-10-23T20:50:05.480Z,1.92
2022-10-23T20:55:04.009Z,1.75
2022-10-23T20:57:30.308Z,1.75
2022-10-23T20:59:56.615Z,1.58
2022-10-23T21:02:23.034Z,1.55
2022-10-23T21:04:50.753Z,1.40
2022-10-23T21:07:19.102Z,1.30
2022-10-23T21:09:45.490Z,2.03
2022-10-23T21:12:12.024Z,2.47
2022-10-23T21:14:38.314Z,1.50
2022-10-23T21:17:04.889Z,1.58
2022-10-23T21:19:31.183Z,1.65
2022-10-23T21:21:57.475Z,2.03
2022-10-23T21:24:24.533Z,1.52
2022-10-23T21:26:50.953Z,1.50
2022-10-23T21:29:19.144Z,1.40
2022-10-23T21:31:51.395Z,1.15
2022-10-23T21:34:17.669Z,1.80
2022-10-23T21:37:10.922Z,1.30
2022-10-23T21:39:32.438Z,1.40
2022-10-23T21:41:58.736Z,1.35
2022-10-23T21:44:25.055Z,1.60
2022-10-23T21:46:51.379Z,1.55
2022-10-23T21:49:17.635Z,1.20
2022-10-23T21:51:44.098Z,1.75
2022-10-23T21:54:12.376Z,1.50
2022-10-23T21:56:45.845Z,1.60
2022-10-23T21:59:13.355Z,1.27
2022-10-23T22:01:40.806Z,1.33
2022-10-23T22:04:07.396Z,1.63
2022-10-23T22:06:33.681Z,1.40
2022-10-23T22:09:00.971Z,1.40
2022-10-23T22:11:27.865Z,1.60
2022-10-23T22:13:54.659Z,1.00
2022-10-23T22:16:21.026Z,1.42
2022-10-23T22:18:47.690Z,1.15
2022-10-23T22:21:15.602Z,1.58
2022-10-23T22:23:45.099Z,1.40
2022-10-23T22:26:26.456Z,1.50
2022-10-23T22:28:53.564Z,2.13
2022-10-23T22:31:24.275Z,1.55
2022-10-23T22:33:51.875Z,1.90
2022-10-23T22:36:18.541Z,2.15
2022-10-23T22:38:45.103Z,1.30
2022-10-23T22:41:12.577Z,1.75
2022-10-23T22:43:38.930Z,1.67
2022-10-23T22:46:12.354Z,2.03
2022-10-23T22:48:39.005Z,1.92
2022-10-23T22:51:08.323Z,1.85
2022-10-23T22:53:35.458Z,2.15
2022-10-23T22:56:05.009Z,2.03
2022-10-23T22:58:31.303Z,2.10
2022-10-23T23:01:02.135Z,2.53
2022-10-23T23:03:28.477Z,2.47
2022-10-23T23:05:54.884Z,2.30
2022-10-23T23:08:21.167Z,1.90
2022-10-23T23:10:53.885Z,2.30
2022-10-23T23:13:20.259Z,2.42
2022-10-23T23:15:46.558Z,2.83
2022-10-23T23:18:12.864Z,2.30
2022-10-23T23:20:39.197Z,1.98
2022-10-23T23:23:05.531Z,2.20
2022-10-23T23:25:32.840Z,1.85
2022-10-23T23:27:59.167Z,2.42
2022-10-23T23:30:26.236Z,2.20
2022-10-23T23:32:53.050Z,2.38
2022-10-23T23:35:20.206Z,2.28
2022-10-23T23:37:46.774Z,2.20
2022-10-23T23:40:13.499Z,1.98
2022-10-23T23:42:39.797Z,2.35
2022-10-23T23:45:14.695Z,2.50
2022-10-23T23:47:41.539Z,2.33
2022-10-23T23:50:09.498Z,2.83
2022-10-23T23:52:35.866Z,2.60
2022-10-23T23:55:02.378Z,2.17
2022-10-23T23:57:28.663Z,2.83
2022-10-23T23:59:55.611Z,3.08
